Time;durP1;ratioP1;P1;durP2;ratioP2;P2;SDS_P1;SDS_P2;PMS_P1;PMS_P2;Temp;Humidity;BMP_temperature;BMP_pressure;BME280_temperature;BME280_humidity;BME280_pressure;Samples;Min_cycle;Max_cycle;Signal;HPM_P1;HPM_P2
2021/08/21 00:01:36;;;;;;;;;3.33;3.00;;;;;;;;5068564;27;45639;-86
2021/08/21 00:04:01;;;;;;;;;4.00;3.00;;;;;;;;5051957;28;45509;-86
2021/08/21 00:06:26;;;;;;;;;5.00;3.33;;;;;;;;5054297;28;45581;-85
2021/08/21 00:08:52;;;;;;;;;4.00;3.00;;;;;;;;5068102;27;46455;-79
2021/08/21 00:11:17;;;;;;;;;2.67;2.67;;;;;;;;5065808;28;45679;-83
2021/08/21 00:13:42;;;;;;;;;4.75;3.25;;;;;;;;5049809;28;49329;-82
2021/08/21 00:16:08;;;;;;;;;3.00;3.00;;;;;;;;5050388;28;45332;-85
2021/08/21 00:18:33;;;;;;;;;4.75;3.00;;;;;;;;5070720;27;45849;-85
2021/08/21 00:20:58;;;;;;;;;4.00;3.00;;;;;;;;5073145;27;45599;-86
2021/08/21 00:23:23;;;;;;;;;3.67;3.67;;;;;;;;5064883;28;45698;-85
2021/08/21 00:25:49;;;;;;;;;2.00;2.00;;;;;;;;5063123;27;45418;-84
2021/08/21 00:28:14;;;;;;;;;7.25;4.00;;;;;;;;5067271;28;46160;-84
2021/08/21 00:30:39;;;;;;;;;2.67;2.67;;;;;;;;5058878;27;45608;-85
2021/08/21 00:33:04;;;;;;;;;2.00;2.00;;;;;;;;5064979;27;45478;-84
2021/08/21 00:35:30;;;;;;;;;3.33;3.33;;;;;;;;5065126;27;45722;-86
2021/08/21 00:37:55;;;;;;;;;3.25;3.25;;;;;;;;5049804;28;47263;-85
2021/08/21 00:40:20;;;;;;;;;3.00;3.00;;;;;;;;5066847;28;45969;-82
2021/08/21 00:42:45;;;;;;;;;3.00;3.00;;;;;;;;5069899;27;45485;-84
2021/08/21 00:45:11;;;;;;;;;3.00;2.00;;;;;;;;5069833;28;45662;-86
2021/08/21 00:47:36;;;;;;;;;4.00;3.00;;;;;;;;5044839;28;47220;-84
2021/08/21 00:50:02;;;;;;;;;3.25;2.50;;;;;;;;5066266;28;45526;-84
2021/08/21 00:52:29;;;;;;;;;3.75;3.75;;;;;;;;5068906;27;45447;-82
2021/08/21 00:54:56;;;;;;;;;4.00;2.00;;;;;;;;5069192;28;45517;-82
2021/08/21 00:57:21;;;;;;;;;2.00;2.00;;;;;;;;5070999;27;45615;-83
2021/08/21 00:59:48;;;;;;;;;4.00;4.00;;;;;;;;5062348;28;45529;-83
2021/08/21 01:02:14;;;;;;;;;4.00;3.00;;;;;;;;5049356;28;45508;-81
2021/08/21 01:04:40;;;;;;;;;5.00;3.75;;;;;;;;5069294;27;45724;-83
2021/08/21 01:07:08;;;;;;;;;6.00;2.75;;;;;;;;5068763;27;46053;-83
2021/08/21 01:09:38;;;;;;;;;3.00;3.00;;;;;;;;5067331;27;45914;-84
2021/08/21 01:12:13;;;;;;;;;4.00;2.50;;;;;;;;5072350;28;45524;-84
2021/08/21 01:14:38;;;;;;;;;3.00;3.00;;;;;;;;5071634;27;46116;-84
2021/08/21 01:17:04;;;;;;;;;4.25;4.25;;;;;;;;5054178;28;48545;-82
2021/08/21 01:19:31;;;;;;;;;5.25;4.00;;;;;;;;5071031;27;45466;-84
2021/08/21 01:21:57;;;;;;;;;3.00;3.00;;;;;;;;5070319;27;45574;-84
2021/08/21 01:24:22;;;;;;;;;3.00;3.00;;;;;;;;5070405;27;45681;-82
2021/08/21 01:26:54;;;;;;;;;2.75;2.75;;;;;;;;5056773;27;47406;-82
2021/08/21 01:29:20;;;;;;;;;4.00;4.00;;;;;;;;5053065;28;46596;-84
2021/08/21 01:31:46;;;;;;;;;4.00;4.00;;;;;;;;5054424;27;45603;-83
2021/08/21 01:34:11;;;;;;;;;6.75;4.50;;;;;;;;5074029;27;45856;-84
2021/08/21 01:36:44;;;;;;;;;4.00;2.75;;;;;;;;5074383;27;46124;-83
2021/08/21 01:39:10;;;;;;;;;5.75;3.00;;;;;;;;5073983;27;45669;-84
2021/08/21 01:41:35;;;;;;;;;3.50;3.25;;;;;;;;5076072;27;45528;-79
2021/08/21 01:44:00;;;;;;;;;5.50;4.00;;;;;;;;5077195;27;45558;-85
2021/08/21 01:46:26;;;;;;;;;4.00;4.00;;;;;;;;5071563;27;46005;-83
2021/08/21 01:48:51;;;;;;;;;2.00;2.00;;;;;;;;5073016;27;45533;-85
2021/08/21 01:51:16;;;;;;;;;4.00;4.00;;;;;;;;5074703;27;46467;-85
2021/08/21 01:53:41;;;;;;;;;2.33;2.33;;;;;;;;5075438;27;45475;-84
2021/08/21 01:56:07;;;;;;;;;5.00;3.00;;;;;;;;5070724;27;45521;-85
2021/08/21 01:58:32;;;;;;;;;4.75;3.75;;;;;;;;5069523;28;45535;-84
2021/08/21 02:00:59;;;;;;;;;4.33;4.33;;;;;;;;5054631;28;48597;-84
2021/08/21 02:03:25;;;;;;;;;3.00;3.00;;;;;;;;5072514;27;45524;-84
2021/08/21 02:05:51;;;;;;;;;4.25;4.25;;;;;;;;5070961;28;46054;-85
2021/08/21 02:08:17;;;;;;;;;6.00;4.00;;;;;;;;5070033;28;45407;-84
2021/08/21 02:10:42;;;;;;;;;3.50;3.00;;;;;;;;5070928;27;45529;-84
2021/08/21 02:13:08;;;;;;;;;3.50;3.50;;;;;;;;5067733;28;45391;-83
2021/08/21 02:15:33;;;;;;;;;5.00;4.00;;;;;;;;5074141;28;45545;-83
2021/08/21 02:17:58;;;;;;;;;4.33;4.33;;;;;;;;5068188;28;45407;-84
2021/08/21 02:20:23;;;;;;;;;5.00;4.00;;;;;;;;5070446;27;45395;-84
2021/08/21 02:22:48;;;;;;;;;3.00;3.00;;;;;;;;5070931;28;45646;-84
2021/08/21 02:25:14;;;;;;;;;3.33;3.33;;;;;;;;5053258;28;49051;-83
2021/08/21 02:27:55;;;;;;;;;5.50;4.00;;;;;;;;5072570;27;45521;-83
2021/08/21 02:30:20;;;;;;;;;4.25;4.25;;;;;;;;5054650;28;45480;-84
2021/08/21 02:32:45;;;;;;;;;5.00;5.00;;;;;;;;5071602;28;45420;-83
2021/08/21 02:35:10;;;;;;;;;4.00;4.00;;;;;;;;5068175;28;45595;-83
2021/08/21 02:37:36;;;;;;;;;7.00;6.00;;;;;;;;5068973;27;45641;-83
2021/08/21 02:40:02;;;;;;;;;4.50;4.50;;;;;;;;5073739;27;45514;-84
2021/08/21 02:42:27;;;;;;;;;4.50;3.25;;;;;;;;5054706;28;45856;-82
2021/08/21 02:44:52;;;;;;;;;6.00;5.33;;;;;;;;5069778;28;46145;-84
2021/08/21 02:47:17;;;;;;;;;3.67;3.67;;;;;;;;5070696;28;45442;-84
2021/08/21 02:49:42;;;;;;;;;6.67;6.00;;;;;;;;5053141;28;46688;-82
2021/08/21 02:52:07;;;;;;;;;4.00;4.00;;;;;;;;5069800;28;45451;-83
2021/08/21 02:54:33;;;;;;;;;4.33;4.33;;;;;;;;5054390;28;47100;-84
2021/08/21 02:56:58;;;;;;;;;10.00;5.00;;;;;;;;5068740;28;45566;-83
2021/08/21 02:59:23;;;;;;;;;6.25;5.00;;;;;;;;5068508;27;45651;-83
2021/08/21 03:01:49;;;;;;;;;4.00;4.00;;;;;;;;5070063;28;45627;-84
2021/08/21 03:04:14;;;;;;;;;6.00;6.00;;;;;;;;5072126;28;45507;-85
2021/08/21 03:06:39;;;;;;;;;5.67;5.67;;;;;;;;5071617;28;45464;-83
2021/08/21 03:09:04;;;;;;;;;4.33;4.33;;;;;;;;5070373;28;45556;-84
2021/08/21 03:11:29;;;;;;;;;5.00;5.00;;;;;;;;5069037;28;45538;-84
2021/08/21 03:13:55;;;;;;;;;4.67;4.67;;;;;;;;5052913;28;48204;-82
2021/08/21 03:16:20;;;;;;;;;5.00;5.00;;;;;;;;5071044;28;45523;-81
2021/08/21 03:18:45;;;;;;;;;8.00;5.00;;;;;;;;5071253;27;46869;-84
2021/08/21 03:21:10;;;;;;;;;6.00;4.33;;;;;;;;5081944;27;45449;-83
2021/08/21 03:23:38;;;;;;;;;9.00;5.67;;;;;;;;5072864;27;46149;-84
2021/08/21 03:26:03;;;;;;;;;5.25;4.25;;;;;;;;5066094;27;45680;-84
2021/08/21 03:28:28;;;;;;;;;6.50;4.75;;;;;;;;5068479;27;45681;-83
2021/08/21 03:30:54;;;;;;;;;5.33;4.67;;;;;;;;5070910;28;45359;-83
2021/08/21 03:33:19;;;;;;;;;6.33;6.00;;;;;;;;5072921;28;45461;-84
2021/08/21 03:35:44;;;;;;;;;5.33;5.00;;;;;;;;5070689;28;45740;-82
2021/08/21 03:38:09;;;;;;;;;7.33;5.67;;;;;;;;5068416;28;45699;-82
2021/08/21 03:40:35;;;;;;;;;5.00;4.00;;;;;;;;5068568;28;45652;-80
2021/08/21 03:43:00;;;;;;;;;5.00;5.00;;;;;;;;5071153;28;45722;-83
2021/08/21 03:45:25;;;;;;;;;6.00;5.00;;;;;;;;5072695;28;45500;-83
2021/08/21 03:47:50;;;;;;;;;5.75;5.75;;;;;;;;5052977;28;45692;-84
2021/08/21 03:50:16;;;;;;;;;6.00;4.00;;;;;;;;5050969;28;46708;-84
2021/08/21 03:52:41;;;;;;;;;5.00;5.00;;;;;;;;5070661;28;45449;-84
2021/08/21 03:55:06;;;;;;;;;8.67;5.00;;;;;;;;5070982;28;45434;-84
2021/08/21 03:57:32;;;;;;;;;6.50;5.25;;;;;;;;5069791;28;45375;-82
2021/08/21 03:59:57;;;;;;;;;6.67;5.00;;;;;;;;5072287;28;45402;-84
2021/08/21 04:02:22;;;;;;;;;4.00;4.00;;;;;;;;5052274;28;48159;-83
2021/08/21 04:04:47;;;;;;;;;7.33;7.00;;;;;;;;5051454;28;45506;-83
2021/08/21 04:07:16;;;;;;;;;7.67;4.33;;;;;;;;5071241;27;45422;-84
2021/08/21 04:09:41;;;;;;;;;5.75;5.50;;;;;;;;5052664;28;45526;-83
2021/08/21 04:12:06;;;;;;;;;5.33;5.33;;;;;;;;5051536;28;48500;-84
2021/08/21 04:14:31;;;;;;;;;5.33;5.00;;;;;;;;5069124;28;45499;-82
2021/08/21 04:16:57;;;;;;;;;9.67;6.33;;;;;;;;5070428;28;45470;-84
2021/08/21 04:19:22;;;;;;;;;6.00;6.00;;;;;;;;5049983;28;45486;-83
2021/08/21 04:21:47;;;;;;;;;7.00;7.00;;;;;;;;5069618;28;46068;-84
2021/08/21 04:24:12;;;;;;;;;5.00;5.00;;;;;;;;5070536;27;45585;-85
2021/08/21 04:26:37;;;;;;;;;6.00;6.00;;;;;;;;5070886;27;45490;-84
2021/08/21 04:29:03;;;;;;;;;8.33;6.67;;;;;;;;5068128;28;45459;-83
2021/08/21 04:31:28;;;;;;;;;5.33;5.33;;;;;;;;5067511;28;45976;-84
2021/08/21 04:33:53;;;;;;;;;7.00;5.33;;;;;;;;5070114;28;45551;-83
2021/08/21 04:36:18;;;;;;;;;7.67;6.33;;;;;;;;5054086;28;46691;-84
2021/08/21 04:38:43;;;;;;;;;8.00;8.00;;;;;;;;5067462;28;45486;-84
2021/08/21 04:41:09;;;;;;;;;8.33;7.00;;;;;;;;5069604;28;46071;-83
2021/08/21 04:43:34;;;;;;;;;11.67;7.00;;;;;;;;5053831;28;45541;-83
2021/08/21 04:45:59;;;;;;;;;9.00;7.33;;;;;;;;5074074;27;45685;-84
2021/08/21 04:48:24;;;;;;;;;6.33;6.00;;;;;;;;5072643;28;45477;-83
2021/08/21 04:50:50;;;;;;;;;6.00;6.00;;;;;;;;5072444;28;45627;-84
2021/08/21 04:53:15;;;;;;;;;7.50;5.75;;;;;;;;5055161;28;45661;-84
2021/08/21 04:55:40;;;;;;;;;7.33;7.00;;;;;;;;5074250;27;45398;-84
2021/08/21 04:58:05;;;;;;;;;10.67;8.00;;;;;;;;5049591;28;45503;-84
2021/08/21 05:00:30;;;;;;;;;8.67;7.67;;;;;;;;5054332;28;47224;-83
2021/08/21 05:02:58;;;;;;;;;9.00;7.25;;;;;;;;5074125;28;45517;-84
2021/08/21 05:05:24;;;;;;;;;7.25;7.25;;;;;;;;5076934;27;45451;-84
2021/08/21 05:07:49;;;;;;;;;16.50;10.75;;;;;;;;5070485;28;45429;-84
2021/08/21 05:10:15;;;;;;;;;8.50;7.00;;;;;;;;5072390;27;45492;-83
2021/08/21 05:12:40;;;;;;;;;11.00;8.50;;;;;;;;5055088;28;45815;-83
2021/08/21 05:15:07;;;;;;;;;9.33;7.67;;;;;;;;5072207;28;45441;-83
2021/08/21 05:17:33;;;;;;;;;10.50;8.50;;;;;;;;5070983;28;45858;-84
2021/08/21 05:20:04;;;;;;;;;9.25;7.00;;;;;;;;5069466;28;45967;-84
2021/08/21 05:22:46;;;;;;;;;9.75;9.25;;;;;;;;5055166;28;45515;-84
2021/08/21 05:25:12;;;;;;;;;9.00;8.50;;;;;;;;5070902;27;45379;-84
2021/08/21 05:27:37;;;;;;;;;9.75;8.75;;;;;;;;5071770;27;45359;-83
2021/08/21 05:30:04;;;;;;;;;11.25;9.50;;;;;;;;5072143;27;46935;-83
2021/08/21 05:32:33;;;;;;;;;10.50;9.00;;;;;;;;5071849;27;45716;-83
2021/08/21 05:34:58;;;;;;;;;9.50;9.50;;;;;;;;5072501;27;45524;-84
2021/08/21 05:37:23;;;;;;;;;9.00;9.00;;;;;;;;5054913;28;48183;-83
2021/08/21 05:39:49;;;;;;;;;8.67;8.33;;;;;;;;5054291;28;47340;-84
2021/08/21 05:42:14;;;;;;;;;7.00;6.25;;;;;;;;5056575;28;45426;-84
2021/08/21 05:44:39;;;;;;;;;7.67;7.67;;;;;;;;5072170;28;45571;-84
2021/08/21 05:47:04;;;;;;;;;11.67;8.33;;;;;;;;5053549;28;45521;-83
2021/08/21 05:49:29;;;;;;;;;11.67;9.67;;;;;;;;5054329;28;47296;-82
2021/08/21 05:51:55;;;;;;;;;10.67;7.00;;;;;;;;5073275;27;45536;-84
2021/08/21 05:54:20;;;;;;;;;8.33;7.00;;;;;;;;5071565;28;45435;-84
2021/08/21 05:56:45;;;;;;;;;9.67;7.67;;;;;;;;5054338;28;45617;-84
2021/08/21 05:59:10;;;;;;;;;9.00;7.67;;;;;;;;5069198;27;46517;-83
2021/08/21 06:01:38;;;;;;;;;10.33;8.00;;;;;;;;5073697;28;45496;-84
2021/08/21 06:04:04;;;;;;;;;8.75;7.75;;;;;;;;5073056;27;45563;-84
2021/08/21 06:06:29;;;;;;;;;9.25;8.50;;;;;;;;5049212;28;45517;-84
2021/08/21 06:08:54;;;;;;;;;8.67;7.33;;;;;;;;5071299;28;46007;-84
2021/08/21 06:11:19;;;;;;;;;8.00;7.33;;;;;;;;5063953;27;45529;-82
2021/08/21 06:13:44;;;;;;;;;13.67;9.00;;;;;;;;5072319;28;45693;-83
2021/08/21 06:16:09;;;;;;;;;11.00;8.33;;;;;;;;5072029;28;48955;-84
2021/08/21 06:18:35;;;;;;;;;7.67;7.00;;;;;;;;5055196;28;47113;-84
2021/08/21 06:21:00;;;;;;;;;9.00;6.33;;;;;;;;5072361;28;45543;-83
2021/08/21 06:23:25;;;;;;;;;6.33;6.33;;;;;;;;5070628;28;45501;-84
2021/08/21 06:25:50;;;;;;;;;8.00;7.25;;;;;;;;5071579;28;45675;-82
2021/08/21 06:28:16;;;;;;;;;8.00;8.00;;;;;;;;5053548;28;47463;-82
2021/08/21 06:30:41;;;;;;;;;7.00;7.00;;;;;;;;5053327;28;45628;-81
2021/08/21 06:33:06;;;;;;;;;7.67;7.67;;;;;;;;5056155;28;45453;-84
2021/08/21 06:35:32;;;;;;;;;8.00;6.50;;;;;;;;5069874;28;45643;-83
2021/08/21 06:37:57;;;;;;;;;8.00;6.67;;;;;;;;5068114;27;46180;-85
2021/08/21 06:40:22;;;;;;;;;11.00;8.00;;;;;;;;5057873;27;45834;-84
2021/08/21 06:42:47;;;;;;;;;10.00;7.00;;;;;;;;5077087;27;45793;-86
2021/08/21 06:45:12;;;;;;;;;8.33;5.67;;;;;;;;5071891;28;45487;-83
2021/08/21 06:47:38;;;;;;;;;8.33;8.33;;;;;;;;5052026;28;47274;-85
2021/08/21 06:50:04;;;;;;;;;11.50;8.00;;;;;;;;5070280;28;45422;-85
2021/08/21 06:52:29;;;;;;;;;23.50;19.50;;;;;;;;5054578;28;45978;-86
2021/08/21 06:54:54;;;;;;;;;12.67;10.00;;;;;;;;5053922;28;45600;-82
2021/08/21 06:57:19;;;;;;;;;7.00;7.00;;;;;;;;5073518;28;46045;-84
2021/08/21 06:59:44;;;;;;;;;7.67;6.00;;;;;;;;5071975;28;45463;-84
2021/08/21 07:02:10;;;;;;;;;7.75;7.00;;;;;;;;5054720;28;45482;-85
2021/08/21 07:04:35;;;;;;;;;9.00;7.33;;;;;;;;5050944;28;45445;-83
2021/08/21 07:07:00;;;;;;;;;8.00;6.67;;;;;;;;5071725;28;45327;-83
2021/08/21 07:09:25;;;;;;;;;7.00;6.33;;;;;;;;5074246;28;45388;-85
2021/08/21 07:11:50;;;;;;;;;8.00;6.33;;;;;;;;5053594;28;45570;-85
2021/08/21 07:14:16;;;;;;;;;6.67;6.67;;;;;;;;5052724;28;48715;-84
2021/08/21 07:16:41;;;;;;;;;8.25;6.00;;;;;;;;5069222;28;46218;-85
2021/08/21 07:19:06;;;;;;;;;6.00;6.00;;;;;;;;5070991;28;45456;-84
2021/08/21 07:21:32;;;;;;;;;5.67;5.67;;;;;;;;5053600;27;45384;-85
2021/08/21 07:23:57;;;;;;;;;9.00;7.00;;;;;;;;5066463;28;45426;-84
2021/08/21 07:26:22;;;;;;;;;5.00;5.00;;;;;;;;5068180;28;46238;-84
2021/08/21 07:28:48;;;;;;;;;7.67;7.67;;;;;;;;5066150;27;45406;-85
2021/08/21 07:31:13;;;;;;;;;7.50;6.00;;;;;;;;5071999;28;45504;-84
2021/08/21 07:33:38;;;;;;;;;6.33;5.67;;;;;;;;5073347;27;45501;-85
2021/08/21 07:36:03;;;;;;;;;4.67;4.67;;;;;;;;5071353;28;46058;-84
2021/08/21 07:38:29;;;;;;;;;7.25;5.25;;;;;;;;5054402;28;45506;-85
2021/08/21 07:40:54;;;;;;;;;5.00;5.00;;;;;;;;5070766;28;45272;-84
2021/08/21 07:43:19;;;;;;;;;6.25;5.00;;;;;;;;5068922;28;45659;-85
2021/08/21 07:45:46;;;;;;;;;6.00;5.00;;;;;;;;5071143;28;45638;-84
2021/08/21 07:48:12;;;;;;;;;7.00;6.25;;;;;;;;5070803;28;45674;-82
2021/08/21 07:50:37;;;;;;;;;7.25;6.25;;;;;;;;5070974;28;45635;-84
2021/08/21 07:53:02;;;;;;;;;7.67;6.00;;;;;;;;5070868;28;45473;-81
2021/08/21 07:55:27;;;;;;;;;6.00;6.00;;;;;;;;5066125;28;47004;-82
2021/08/21 07:57:53;;;;;;;;;7.00;6.00;;;;;;;;5066819;28;45597;-83
2021/08/21 08:00:19;;;;;;;;;5.00;3.75;;;;;;;;5052721;28;45500;-86
2021/08/21 08:02:45;;;;;;;;;8.25;5.00;;;;;;;;5052526;28;45706;-89
2021/08/21 08:05:10;;;;;;;;;6.50;6.50;;;;;;;;5068881;28;46294;-85
2021/08/21 08:07:35;;;;;;;;;6.50;5.25;;;;;;;;5066601;27;45476;-86
2021/08/21 08:10:00;;;;;;;;;7.67;5.00;;;;;;;;5069981;27;45482;-86
2021/08/21 08:12:25;;;;;;;;;7.00;5.00;;;;;;;;5052847;28;45521;-84
2021/08/21 08:14:51;;;;;;;;;6.67;6.33;;;;;;;;5068565;27;46044;-89
2021/08/21 08:17:16;;;;;;;;;5.67;5.67;;;;;;;;5063425;28;45521;-88
2021/08/21 08:19:41;;;;;;;;;4.50;4.50;;;;;;;;5068329;27;45447;-81
2021/08/21 08:22:06;;;;;;;;;5.33;5.33;;;;;;;;5071354;27;45367;-88
2021/08/21 08:24:32;;;;;;;;;6.00;6.00;;;;;;;;5070551;27;45563;-87
2021/08/21 08:26:57;;;;;;;;;5.33;5.33;;;;;;;;5067492;28;45327;-86
2021/08/21 08:29:22;;;;;;;;;6.00;5.67;;;;;;;;5067396;27;45550;-91
2021/08/21 08:31:47;;;;;;;;;5.67;5.67;;;;;;;;5061563;28;45647;-90
2021/08/21 08:34:12;;;;;;;;;8.00;5.67;;;;;;;;5065892;28;45431;-89
2021/08/21 08:36:37;;;;;;;;;7.00;4.00;;;;;;;;5048089;28;45770;-90
2021/08/21 08:39:03;;;;;;;;;6.67;4.67;;;;;;;;5051008;28;45435;-88
2021/08/21 08:41:28;;;;;;;;;6.00;6.00;;;;;;;;5044200;28;46765;-90
2021/08/21 08:43:53;;;;;;;;;4.50;4.50;;;;;;;;5041774;28;47152;-88
2021/08/21 08:46:19;;;;;;;;;7.67;6.33;;;;;;;;5062118;28;45481;-85
2021/08/21 08:48:45;;;;;;;;;4.75;4.75;;;;;;;;5058138;27;58432;-86
2021/08/21 08:51:10;;;;;;;;;5.75;5.75;;;;;;;;5061343;28;45421;-77
2021/08/21 08:53:36;;;;;;;;;7.50;5.75;;;;;;;;5058304;27;45962;-75
2021/08/21 08:56:01;;;;;;;;;8.33;6.67;;;;;;;;5061168;28;45576;-73
2021/08/21 08:58:26;;;;;;;;;5.50;5.00;;;;;;;;5058299;27;45660;-76
2021/08/21 09:00:51;;;;;;;;;9.33;6.67;;;;;;;;5067784;27;46675;-75
2021/08/21 09:03:18;;;;;;;;;6.75;5.25;;;;;;;;5068532;28;46360;-77
2021/08/21 09:05:44;;;;;;;;;6.00;6.00;;;;;;;;5069519;28;45497;-77
2021/08/21 09:08:19;;;;;;;;;6.00;5.00;;;;;;;;5062639;28;45553;-79
2021/08/21 09:10:45;;;;;;;;;7.75;6.75;;;;;;;;5066493;27;45428;-77
2021/08/21 09:13:15;;;;;;;;;7.00;5.25;;;;;;;;5069145;28;45840;-77
2021/08/21 09:15:50;;;;;;;;;7.00;5.50;;;;;;;;5055699;28;45549;-77
2021/08/21 09:18:17;;;;;;;;;5.25;5.25;;;;;;;;5070034;28;45359;-77
2021/08/21 09:20:48;;;;;;;;;7.00;5.50;;;;;;;;5066055;28;45574;-79
2021/08/21 09:23:24;;;;;;;;;8.25;5.25;;;;;;;;5052107;28;47390;-78
2021/08/21 09:26:09;;;;;;;;;8.75;6.75;;;;;;;;5066504;27;45625;-83
2021/08/21 09:28:38;;;;;;;;;4.50;4.50;;;;;;;;5053426;27;45445;-80
2021/08/21 09:31:08;;;;;;;;;6.50;6.50;;;;;;;;5072984;27;45323;-78
2021/08/21 09:33:35;;;;;;;;;7.50;7.00;;;;;;;;5074040;27;45370;-78
2021/08/21 09:36:00;;;;;;;;;5.75;5.50;;;;;;;;5056725;28;45450;-79
2021/08/21 09:38:30;;;;;;;;;6.25;5.75;;;;;;;;5067827;27;45690;-79
2021/08/21 09:41:03;;;;;;;;;6.00;6.00;;;;;;;;5051380;28;45671;-80
2021/08/21 09:43:33;;;;;;;;;6.00;6.00;;;;;;;;5053316;28;47053;-81
2021/08/21 09:46:12;;;;;;;;;5.50;5.00;;;;;;;;5061636;27;46079;-80
2021/08/21 09:48:56;;;;;;;;;7.00;7.00;;;;;;;;5070086;27;45790;-83
2021/08/21 09:51:42;;;;;;;;;7.75;6.25;;;;;;;;5077158;27;45601;-79
2021/08/21 09:54:09;;;;;;;;;5.75;5.75;;;;;;;;5072305;28;45365;-79
2021/08/21 09:56:35;;;;;;;;;7.75;7.25;;;;;;;;5070833;28;45662;-78
2021/08/21 09:59:01;;;;;;;;;9.00;6.75;;;;;;;;5068724;27;45349;-75
2021/08/21 10:01:27;;;;;;;;;6.00;6.00;;;;;;;;5071920;27;45481;-78
2021/08/21 10:03:53;;;;;;;;;5.75;5.25;;;;;;;;5073122;28;45787;-78
2021/08/21 10:06:18;;;;;;;;;6.00;6.00;;;;;;;;5071594;28;45351;-77
2021/08/21 10:08:44;;;;;;;;;5.75;5.75;;;;;;;;5068712;27;45419;-79
2021/08/21 10:11:09;;;;;;;;;8.25;8.00;;;;;;;;5067848;27;45564;-78
2021/08/21 10:13:35;;;;;;;;;6.00;5.00;;;;;;;;5069742;28;46387;-78
2021/08/21 10:16:06;;;;;;;;;8.00;5.75;;;;;;;;5071224;27;45414;-76
2021/08/21 10:18:31;;;;;;;;;7.25;6.25;;;;;;;;5075101;27;45639;-77
2021/08/21 10:20:56;;;;;;;;;8.33;8.00;;;;;;;;5058967;28;45501;-77
2021/08/21 10:23:28;;;;;;;;;5.00;5.00;;;;;;;;5067450;27;46209;-77
2021/08/21 10:26:25;;;;;;;;;9.50;8.00;;;;;;;;5068023;27;45669;-77
2021/08/21 10:28:51;;;;;;;;;7.00;7.00;;;;;;;;5002565;28;45302;-77
2021/08/21 10:31:36;;;;;;;;;8.00;6.00;;;;;;;;5009607;28;45647;-75
2021/08/21 10:34:02;;;;;;;;;6.75;6.75;;;;;;;;5006662;28;45642;-75
2021/08/21 10:36:47;;;;;;;;;7.00;6.50;;;;;;;;5008192;28;45381;-79
2021/08/21 10:39:15;;;;;;;;;10.50;7.00;;;;;;;;5010583;28;45811;-78
2021/08/21 10:41:40;;;;;;;;;8.00;8.00;;;;;;;;5005874;28;45526;-78
2021/08/21 10:44:06;;;;;;;;;6.50;6.25;;;;;;;;5008102;28;45502;-77
2021/08/21 10:46:31;;;;;;;;;5.25;5.25;;;;;;;;5007244;28;45432;-78
2021/08/21 10:49:00;;;;;;;;;8.33;6.00;;;;;;;;5009576;28;45416;-76
2021/08/21 10:51:40;;;;;;;;;7.50;6.75;;;;;;;;5009030;28;45483;-75
2021/08/21 10:54:24;;;;;;;;;10.50;9.00;;;;;;;;5008789;28;45544;-76
2021/08/21 10:56:49;;;;;;;;;7.25;6.00;;;;;;;;5010323;28;45463;-75
2021/08/21 10:59:34;;;;;;;;;8.50;7.00;;;;;;;;4998411;28;46645;-73
2021/08/21 11:02:20;;;;;;;;;7.50;7.00;;;;;;;;5007412;28;49704;-75
2021/08/21 11:04:45;;;;;;;;;9.75;6.75;;;;;;;;5045474;27;45485;-75
2021/08/21 11:07:29;;;;;;;;;6.00;6.00;;;;;;;;5067773;27;45711;-75
2021/08/21 11:10:11;;;;;;;;;6.50;6.50;;;;;;;;5063792;28;45483;-75
2021/08/21 11:12:36;;;;;;;;;5.75;4.75;;;;;;;;5065823;27;45554;-75
2021/08/21 11:15:12;;;;;;;;;5.25;5.25;;;;;;;;5069693;28;45490;-74
2021/08/21 11:17:38;;;;;;;;;6.75;6.75;;;;;;;;5065719;27;45997;-74
2021/08/21 11:20:23;;;;;;;;;9.25;7.00;;;;;;;;5047209;28;45406;-74
2021/08/21 11:23:07;;;;;;;;;7.75;7.75;;;;;;;;5066896;27;45575;-75
2021/08/21 11:25:33;;;;;;;;;7.75;6.75;;;;;;;;5067422;27;46174;-76
2021/08/21 11:28:08;;;;;;;;;6.50;6.25;;;;;;;;5071123;27;45596;-75
2021/08/21 11:30:34;;;;;;;;;6.00;6.00;;;;;;;;5062933;27;45451;-74
2021/08/21 11:33:01;;;;;;;;;8.00;7.00;;;;;;;;5063124;28;45381;-76
2021/08/21 11:35:32;;;;;;;;;7.00;6.50;;;;;;;;5063291;27;46510;-75
2021/08/21 11:38:17;;;;;;;;;5.25;5.25;;;;;;;;5057075;28;45972;-75
2021/08/21 11:40:47;;;;;;;;;7.25;7.25;;;;;;;;5057612;27;45737;-75
2021/08/21 11:43:16;;;;;;;;;7.00;7.00;;;;;;;;5059912;27;45579;-75
2021/08/21 11:45:43;;;;;;;;;10.25;8.50;;;;;;;;5062997;27;45660;-75
2021/08/21 11:48:08;;;;;;;;;7.00;7.00;;;;;;;;5052089;27;45675;-76
2021/08/21 11:50:41;;;;;;;;;7.00;6.00;;;;;;;;5060993;27;49388;-76
2021/08/21 11:53:08;;;;;;;;;11.25;6.25;;;;;;;;5061023;27;45427;-73
2021/08/21 11:55:34;;;;;;;;;6.25;6.25;;;;;;;;5067983;27;45626;-73
2021/08/21 11:57:59;;;;;;;;;6.00;6.00;;;;;;;;5063065;28;46359;-75
2021/08/21 12:00:27;;;;;;;;;8.75;6.50;;;;;;;;5066912;28;45370;-76
2021/08/21 12:02:56;;;;;;;;;4.25;4.25;;;;;;;;5061538;28;45698;-73
2021/08/21 12:05:28;;;;;;;;;6.75;6.75;;;;;;;;5064578;28;46177;-75
2021/08/21 12:07:54;;;;;;;;;5.75;5.50;;;;;;;;5072784;27;45505;-76
2021/08/21 12:10:19;;;;;;;;;6.00;6.00;;;;;;;;5064649;27;45767;-75
2021/08/21 12:12:51;;;;;;;;;7.50;6.25;;;;;;;;5053848;28;45676;-74
2021/08/21 12:15:16;;;;;;;;;8.00;7.00;;;;;;;;5055418;28;46606;-74
2021/08/21 12:17:41;;;;;;;;;8.50;7.50;;;;;;;;5054124;27;45556;-73
2021/08/21 12:20:07;;;;;;;;;5.00;4.00;;;;;;;;5057627;28;49649;-75
2021/08/21 12:22:32;;;;;;;;;6.00;6.00;;;;;;;;5053345;28;45629;-74
2021/08/21 12:24:58;;;;;;;;;9.25;6.25;;;;;;;;5055521;28;46242;-75
2021/08/21 12:27:24;;;;;;;;;7.50;7.25;;;;;;;;5058055;27;45699;-75
2021/08/21 12:30:03;;;;;;;;;6.00;5.00;;;;;;;;5061526;28;45412;-75
2021/08/21 12:32:29;;;;;;;;;7.00;6.00;;;;;;;;5064410;28;45399;-76
2021/08/21 12:35:14;;;;;;;;;11.25;7.50;;;;;;;;5066922;28;45391;-75
2021/08/21 12:37:39;;;;;;;;;6.00;6.00;;;;;;;;5048460;28;45556;-75
2021/08/21 12:40:05;;;;;;;;;7.25;4.75;;;;;;;;5070548;28;45629;-75
2021/08/21 12:42:31;;;;;;;;;8.00;6.75;;;;;;;;5068571;28;45333;-75
2021/08/21 12:44:56;;;;;;;;;6.67;5.67;;;;;;;;5065087;28;46301;-76
2021/08/21 12:47:21;;;;;;;;;4.50;4.50;;;;;;;;5067432;27;45585;-75
2021/08/21 12:49:50;;;;;;;;;5.50;5.00;;;;;;;;5067644;27;45323;-75
2021/08/21 12:52:21;;;;;;;;;5.00;4.25;;;;;;;;5071520;28;45481;-75
2021/08/21 12:54:55;;;;;;;;;4.75;4.75;;;;;;;;5066874;28;45570;-75
2021/08/21 12:57:21;;;;;;;;;5.00;5.00;;;;;;;;5070033;27;45703;-75
2021/08/21 12:59:47;;;;;;;;;6.50;5.50;;;;;;;;5064379;28;45704;-75
2021/08/21 13:02:13;;;;;;;;;5.25;5.25;;;;;;;;5052233;28;45437;-73
2021/08/21 13:04:39;;;;;;;;;5.50;5.00;;;;;;;;5069886;28;46318;-75
2021/08/21 13:07:07;;;;;;;;;7.00;6.00;;;;;;;;5077525;27;45575;-74
2021/08/21 13:09:33;;;;;;;;;5.25;4.75;;;;;;;;5070779;28;45498;-74
2021/08/21 13:11:58;;;;;;;;;6.00;6.00;;;;;;;;5068884;28;45624;-75
2021/08/21 13:14:24;;;;;;;;;4.00;3.50;;;;;;;;5067533;28;46099;-74
2021/08/21 13:16:49;;;;;;;;;5.25;5.25;;;;;;;;5074031;27;45727;-75
2021/08/21 13:19:15;;;;;;;;;5.00;4.00;;;;;;;;5070382;27;45359;-75
2021/08/21 13:21:40;;;;;;;;;5.75;5.00;;;;;;;;5062875;28;45379;-76
2021/08/21 13:24:05;;;;;;;;;9.00;5.33;;;;;;;;5072273;27;46148;-74
2021/08/21 13:26:34;;;;;;;;;5.67;5.00;;;;;;;;5073204;27;45461;-75
2021/08/21 13:29:00;;;;;;;;;6.25;5.00;;;;;;;;5069263;27;45409;-75
2021/08/21 13:31:25;;;;;;;;;6.00;3.00;;;;;;;;5070787;28;46076;-74
2021/08/21 13:33:50;;;;;;;;;7.00;5.00;;;;;;;;5071019;27;46090;-75
2021/08/21 13:36:15;;;;;;;;;5.00;5.00;;;;;;;;5077563;27;45513;-75
2021/08/21 13:38:40;;;;;;;;;4.00;4.00;;;;;;;;5076343;27;45648;-75
2021/08/21 13:41:06;;;;;;;;;4.67;4.67;;;;;;;;5072790;27;45415;-74
2021/08/21 13:43:31;;;;;;;;;4.00;4.00;;;;;;;;5076438;27;46215;-76
2021/08/21 13:45:56;;;;;;;;;7.33;6.33;;;;;;;;5076956;27;45563;-75
2021/08/21 13:48:21;;;;;;;;;7.00;5.33;;;;;;;;5076995;27;45395;-76
2021/08/21 13:50:47;;;;;;;;;4.67;4.67;;;;;;;;5067503;27;45474;-75
2021/08/21 13:53:12;;;;;;;;;5.75;5.00;;;;;;;;5069691;28;45313;-75
2021/08/21 13:55:37;;;;;;;;;5.67;5.00;;;;;;;;5071768;28;45355;-75
2021/08/21 13:58:03;;;;;;;;;9.67;6.00;;;;;;;;5072408;27;45766;-75
2021/08/21 14:00:28;;;;;;;;;6.00;5.00;;;;;;;;5071940;28;45474;-75
2021/08/21 14:02:53;;;;;;;;;5.00;5.00;;;;;;;;5069564;28;45508;-74
2021/08/21 14:05:19;;;;;;;;;6.33;5.00;;;;;;;;5066155;28;45493;-75
2021/08/21 14:07:44;;;;;;;;;4.67;4.67;;;;;;;;5062753;27;46690;-74
2021/08/21 14:10:10;;;;;;;;;8.00;5.25;;;;;;;;5068089;27;46333;-74
2021/08/21 14:12:36;;;;;;;;;4.75;4.25;;;;;;;;5071215;27;46060;-75
2021/08/21 14:15:02;;;;;;;;;5.00;5.00;;;;;;;;5081818;27;45490;-73
2021/08/21 14:17:27;;;;;;;;;6.00;4.25;;;;;;;;5068435;27;45639;-74
2021/08/21 14:19:53;;;;;;;;;5.00;5.00;;;;;;;;5071032;27;45533;-87
2021/08/21 14:22:18;;;;;;;;;7.00;3.67;;;;;;;;5068903;27;46170;-87
2021/08/21 14:24:43;;;;;;;;;6.00;5.33;;;;;;;;5073355;28;45302;-87
2021/08/21 14:27:09;;;;;;;;;6.00;4.75;;;;;;;;5050676;28;45601;-87
2021/08/21 14:29:34;;;;;;;;;6.00;4.00;;;;;;;;5073873;27;45710;-86
2021/08/21 14:31:59;;;;;;;;;5.00;5.00;;;;;;;;5065616;27;45489;-87
2021/08/21 14:34:24;;;;;;;;;6.00;4.33;;;;;;;;5052474;27;45512;-87
2021/08/21 14:36:50;;;;;;;;;5.00;4.00;;;;;;;;5070073;27;45517;-88
2021/08/21 14:39:15;;;;;;;;;5.00;5.00;;;;;;;;5046938;28;45488;-88
2021/08/21 14:41:40;;;;;;;;;8.00;5.00;;;;;;;;5068352;28;45435;-88